createdAt,value
2018-12-30T11:22:30.127Z,101506.70
2018-12-30T11:25:01.870Z,101515.27
2018-12-30T11:27:32.994Z,101517.55
2018-12-30T11:30:04.298Z,101521.98
2018-12-30T11:32:35.995Z,101520.41
2018-12-30T11:35:07.175Z,101510.20
2018-12-30T11:37:38.321Z,101503.19
2018-12-30T11:40:09.855Z,101504.92
2018-12-30T11:42:40.922Z,101503.95
2018-12-30T11:45:12.047Z,101505.00
2018-12-30T11:47:43.207Z,101507.57
2018-12-30T11:50:14.242Z,101513.98
2018-12-30T11:52:45.369Z,101502.38
2018-12-30T11:55:16.575Z,101500.31
2018-12-30T11:58:27.076Z,101493.62
2018-12-30T12:02:24.036Z,101499.52
2018-12-30T12:04:50.355Z,101500.11
2018-12-30T12:07:21.550Z,101506.02
2018-12-30T12:09:52.168Z,101501.97
2018-12-30T12:12:23.664Z,101500.95
2018-12-30T12:14:54.847Z,101521.20
2018-12-30T12:18:48.463Z,101530.82
2018-12-30T12:21:21.746Z,101528.42
2018-12-30T12:23:53.853Z,101523.28
2018-12-30T12:26:26.422Z,101526.31
2018-12-30T12:28:58.752Z,101526.31
2018-12-30T12:31:31.120Z,101515.52
2018-12-30T12:34:03.130Z,101526.83
2018-12-30T12:36:35.532Z,101537.42
2018-12-30T12:39:08.728Z,101527.59
2018-12-30T12:41:40.765Z,101527.92
2018-12-30T12:44:12.954Z,101529.37
2018-12-30T12:46:45.034Z,101524.81
2018-12-30T12:49:17.026Z,101524.09
2018-12-30T12:51:49.505Z,101522.44
2018-12-30T12:54:23.964Z,101523.66
2018-12-30T12:56:56.293Z,101526.03
2018-12-30T12:59:27.831Z,101522.70
2018-12-30T13:01:59.681Z,101518.52
2018-12-30T13:04:31.911Z,101523.28
2018-12-30T13:07:04.007Z,101527.33
2018-12-30T13:09:36.077Z,101523.79
2018-12-30T13:12:08.152Z,101531.72
2018-12-30T13:14:40.373Z,101532.35
2018-12-30T13:17:12.362Z,101538.90
2018-12-30T13:19:44.748Z,101542.77
2018-12-30T13:22:16.828Z,101541.72
2018-12-30T13:25:06.802Z,101546.23
2018-12-30T13:27:57.161Z,101528.68
2018-12-30T13:30:36.131Z,101544.34
2018-12-30T13:33:08.470Z,101545.70
2018-12-30T13:35:43.555Z,101554.77
2018-12-30T13:38:13.966Z,101553.55
2018-12-30T13:40:46.019Z,101554.52
2018-12-30T13:43:33.121Z,101553.97
2018-12-30T13:46:06.102Z,101557.84
2018-12-30T13:48:38.043Z,101558.69
2018-12-30T13:51:10.260Z,101563.76
2018-12-30T13:53:42.369Z,101564.27
2018-12-30T13:56:14.573Z,101570.17
2018-12-30T13:58:46.669Z,101572.06
2018-12-30T14:01:18.697Z,101581.31
2018-12-30T14:03:50.973Z,101578.73
2018-12-30T14:06:23.336Z,101581.11
2018-12-30T14:08:55.830Z,101591.41
2018-12-30T14:11:28.353Z,101590.56
2018-12-30T14:14:01.404Z,101591.09
2018-12-30T14:16:33.373Z,101588.06
2018-12-30T14:19:05.412Z,101585.70
2018-12-30T14:21:37.421Z,101593.80
2018-12-30T14:24:09.674Z,101594.81
2018-12-30T14:26:43.933Z,101598.53
2018-12-30T14:29:16.752Z,101604.98
2018-12-30T14:31:49.042Z,101608.91
2018-12-30T14:34:22.706Z,101601.82
2018-12-30T14:36:56.237Z,101602.02
2018-12-30T14:39:28.192Z,101606.41
2018-12-30T14:42:00.182Z,101601.19
2018-12-30T14:44:32.220Z,101608.44
2018-12-30T14:47:04.212Z,101609.16
2018-12-30T14:49:35.652Z,101604.67
2018-12-30T14:52:07.728Z,101604.16
2018-12-30T14:54:39.696Z,101614.13
2018-12-30T14:57:12.199Z,101612.44
2018-12-30T14:59:44.317Z,101611.62
2018-12-30T15:02:15.857Z,101609.94
2018-12-30T15:04:47.613Z,101610.45
2018-12-30T15:07:19.596Z,101612.00
2018-12-30T15:09:51.625Z,101607.95
2018-12-30T15:12:24.005Z,101311.73
2018-12-30T15:14:56.199Z,101608.67
2018-12-30T15:17:30.993Z,101605.63
2018-12-30T15:20:03.013Z,101599.09
2018-12-30T15:22:34.944Z,101597.23
2018-12-30T15:25:11.594Z,101593.69
2018-12-30T15:27:41.099Z,101591.50
2018-12-30T15:30:13.447Z,101591.19
2018-12-30T15:32:45.527Z,101596.59
2018-12-30T15:35:19.464Z,101594.53
2018-12-30T15:37:51.584Z,101601.28
2018-12-30T15:40:25.583Z,101614.78
2018-12-30T15:42:57.558Z,101611.23
2018-12-30T15:45:29.733Z,101608.03
2018-12-30T15:48:02.172Z,101601.08
2018-12-30T15:50:34.098Z,101600.56
2018-12-30T15:53:06.116Z,101590.53
2018-12-30T15:55:38.238Z,101587.96
2018-12-30T15:58:10.428Z,101599.20
2018-12-30T16:00:42.341Z,101603.37
2018-12-30T16:03:14.696Z,101604.73
2018-12-30T16:05:46.745Z,101610.46
2018-12-30T16:08:19.917Z,101611.09
2018-12-30T16:10:52.769Z,101605.88
2018-12-30T16:13:25.248Z,101613.67
2018-12-30T16:15:57.369Z,101622.78
2018-12-30T16:18:29.498Z,101626.66
2018-12-30T16:21:01.427Z,101638.48
2018-12-30T16:23:33.420Z,101642.88
2018-12-30T16:26:05.470Z,101648.78
2018-12-30T16:28:37.437Z,101646.59
2018-12-30T16:31:09.447Z,101655.20
2018-12-30T16:33:41.444Z,101666.41
2018-12-30T16:36:13.455Z,101671.67
2018-12-30T16:38:45.486Z,101680.79
2018-12-30T16:41:17.413Z,101677.25
2018-12-30T16:43:49.631Z,101693.78
2018-12-30T16:46:21.713Z,101686.19
2018-12-30T16:48:53.597Z,101692.94
2018-12-30T16:51:25.568Z,101698.03
2018-12-30T16:53:57.561Z,101692.50
2018-12-30T16:56:29.513Z,101690.31
2018-12-30T16:59:01.413Z,101677.83
2018-12-30T17:01:33.354Z,101679.17
2018-12-30T17:04:06.374Z,101680.22
2018-12-30T17:06:38.266Z,101668.91
2018-12-30T17:09:10.773Z,101682.92
2018-12-30T17:11:43.118Z,101684.78
2018-12-30T17:14:15.036Z,101685.11
2018-12-30T17:17:06.452Z,101689.67
2018-12-30T17:19:56.796Z,101687.84
2018-12-30T17:22:46.821Z,101695.51
2018-12-30T17:25:43.005Z,101695.38
2018-12-30T17:28:29.209Z,101695.23
2018-12-30T17:32:29.707Z,101700.98
2018-12-30T17:35:01.707Z,101700.70
2018-12-30T17:37:33.688Z,101700.00
2018-12-30T17:40:06.110Z,101718.32
2018-12-30T17:42:37.935Z,101721.16
2018-12-30T17:45:09.981Z,101723.66
2018-12-30T17:47:42.162Z,101729.19
2018-12-30T17:50:14.212Z,101708.57
2018-12-30T17:52:51.787Z,101713.97
2018-12-30T17:55:26.250Z,101726.12
2018-12-30T17:57:57.492Z,101725.78
2018-12-30T18:00:29.128Z,101734.73
2018-12-30T18:03:00.378Z,101724.94
2018-12-30T18:05:31.682Z,101734.73
2018-12-30T18:08:03.410Z,101731.02
2018-12-30T18:10:34.750Z,101731.52
2018-12-30T18:13:06.933Z,101738.91
2018-12-30T18:15:56.772Z,101735.23
2018-12-30T18:18:47.515Z,101744.55
2018-12-30T18:21:38.051Z,101754.06
2018-12-30T18:24:27.611Z,101755.11
2018-12-30T18:27:17.595Z,101753.62
2018-12-30T18:30:09.328Z,101757.67
2018-12-30T18:32:59.311Z,101752.77
2018-12-30T18:35:49.477Z,101751.92
2018-12-30T18:38:39.357Z,101748.59
2018-12-30T18:41:29.425Z,101750.95
2018-12-30T18:44:33.105Z,101757.76
2018-12-30T18:47:23.429Z,101762.37
2018-12-30T18:50:13.401Z,101758.69
2018-12-30T18:53:04.558Z,101752.14
2018-12-30T18:55:54.397Z,101752.14
2018-12-30T18:58:44.773Z,101750.48
2018-12-30T19:01:35.106Z,101758.58
2018-12-30T19:04:25.353Z,101759.39
2018-12-30T19:07:15.407Z,101761.59
2018-12-30T19:10:05.467Z,101746.74
2018-12-30T19:12:55.464Z,101763.58
2018-12-30T19:15:45.436Z,101763.28
2018-12-30T19:18:41.198Z,101776.13
2018-12-30T19:21:42.965Z,101777.50
2018-12-30T19:24:33.204Z,101782.25
2018-12-30T19:27:23.287Z,101779.24
2018-12-30T19:30:13.473Z,101782.95
2018-12-30T19:33:03.815Z,101788.69
2018-12-30T19:35:53.625Z,101784.81
2018-12-30T19:38:44.246Z,101791.39
2018-12-30T19:41:38.114Z,101800.83
2018-12-30T19:44:27.496Z,101783.09
2018-12-30T19:47:17.343Z,101783.94
2018-12-30T19:50:07.806Z,101777.19
2018-12-30T19:52:58.126Z,101776.15
2018-12-30T19:55:48.071Z,101774.80
2018-12-30T19:58:38.081Z,101784.11
2018-12-30T20:01:27.591Z,101783.30
2018-12-30T20:04:17.496Z,101780.91
2018-12-30T20:07:07.389Z,101784.75
2018-12-30T20:09:57.168Z,101780.40
2018-12-30T20:12:47.432Z,101785.80
2018-12-30T20:15:37.580Z,101778.20
2018-12-30T20:18:27.258Z,101782.05
2018-12-30T20:21:17.412Z,101773.14
2018-12-30T20:24:06.970Z,101775.50
2018-12-30T20:26:56.998Z,101781.60
2018-12-30T20:29:47.032Z,101780.77
2018-12-30T20:32:37.361Z,101783.16
2018-12-30T20:35:27.066Z,101788.72
2018-12-30T20:38:17.036Z,101790.60
2018-12-30T20:41:07.044Z,101787.36
2018-12-30T20:43:56.875Z,101788.06
2018-12-30T20:46:47.070Z,101792.51
2018-12-30T20:49:36.764Z,101785.93
2018-12-30T20:52:26.670Z,101794.08
2018-12-30T20:55:16.807Z,101789.69
2018-12-30T20:58:06.716Z,101783.64
2018-12-30T21:00:56.473Z,101780.16
2018-12-30T21:03:46.954Z,101771.92
2018-12-30T21:06:37.189Z,101778.50
2018-12-30T21:09:27.335Z,101780.66
2018-12-30T21:12:17.471Z,101787.94
2018-12-30T21:15:08.140Z,101783.89
2018-12-30T21:17:57.361Z,101783.05
2018-12-30T21:20:47.328Z,101784.70
2018-12-30T21:23:38.148Z,101781.84
2018-12-30T21:26:27.882Z,101772.56
2018-12-30T21:29:18.142Z,101776.11
2018-12-30T21:32:08.159Z,101771.92
2018-12-30T21:34:57.948Z,101770.62
2018-12-30T21:37:47.550Z,101763.73
2018-12-30T21:40:37.658Z,101766.34
2018-12-30T21:43:27.814Z,101770.91
2018-12-30T21:46:17.743Z,101769.61
2018-12-30T21:49:07.729Z,101780.95
2018-12-30T21:51:57.425Z,101780.66
2018-12-30T21:54:46.960Z,101773.81
2018-12-30T21:57:36.499Z,101782.75
2018-12-30T22:00:26.418Z,101785.30
2018-12-30T22:03:16.359Z,101790.05
2018-12-30T22:06:05.858Z,101788.73
2018-12-30T22:08:55.727Z,101793.02
2018-12-30T22:11:45.696Z,101794.91
2018-12-30T22:14:35.675Z,101804.70
2018-12-30T22:17:25.179Z,101819.67
2018-12-30T22:20:14.801Z,101823.06
2018-12-30T22:23:04.487Z,101827.11
2018-12-30T22:25:54.501Z,101824.59
2018-12-30T22:28:44.658Z,101829.48
2018-12-30T22:31:34.771Z,101828.45
2018-12-30T22:34:24.832Z,101828.44
2018-12-30T22:37:14.541Z,101837.34
2018-12-30T22:40:05.527Z,101831.56
2018-12-30T22:42:55.380Z,101823.32
2018-12-30T22:45:44.960Z,101817.39
2018-12-30T22:48:34.733Z,101831.21
2018-12-30T22:51:24.568Z,101826.98
2018-12-30T22:54:14.315Z,101824.77
2018-12-30T22:57:04.202Z,101824.73
2018-12-30T22:59:53.824Z,101831.13
2018-12-30T23:02:44.014Z,101823.19
2018-12-30T23:05:34.208Z,101833.58
2018-12-30T23:08:24.147Z,101821.80
2018-12-30T23:11:13.902Z,101822.30
2018-12-30T23:14:03.941Z,101827.69
2018-12-30T23:16:54.185Z,101827.38
2018-12-30T23:19:43.557Z,101830.07
2018-12-30T23:22:33.330Z,101835.97
2018-12-30T23:25:23.092Z,101843.55
2018-12-30T23:28:12.953Z,101840.86
2018-12-30T23:31:02.809Z,101841.86
2018-12-30T23:33:52.902Z,101841.02
2018-12-30T23:36:42.811Z,101831.27
2018-12-30T23:39:33.039Z,101836.32
2018-12-30T23:42:23.094Z,101837.16
2018-12-30T23:45:12.876Z,101839.02
2018-12-30T23:48:02.545Z,101840.17
2018-12-30T23:50:52.539Z,101836.66
2018-12-30T23:53:42.191Z,101840.17
2018-12-30T23:56:31.958Z,101839.36
2018-12-30T23:59:22.173Z,101833.63
